Time;durP1;ratioP1;P1;durP2;ratioP2;P2;SDS_P1;SDS_P2;PMS_P1;PMS_P2;Temp;Humidity;BMP_temperature;BMP_pressure;BME280_temperature;BME280_humidity;BME280_pressure;Samples;Min_cycle;Max_cycle;Signal;HPM_P1;HPM_P2
2021/04/29 00:01:45;;;;;;;14.43;12.35;;;11.40;52.30;;;;;;5038399;28;20421;-71
2021/04/29 00:04:13;;;;;;;13.63;12.23;;;11.40;53.00;;;;;;5034968;28;20049;-72
2021/04/29 00:06:39;;;;;;;17.55;12.20;;;11.40;52.50;;;;;;5015048;28;20551;-72
2021/04/29 00:09:05;;;;;;;14.18;11.95;;;11.40;52.40;;;;;;4999961;28;20053;-71
2021/04/29 00:11:32;;;;;;;15.27;12.00;;;11.40;52.50;;;;;;5034211;28;20119;-75
2021/04/29 00:13:58;;;;;;;15.35;11.73;;;11.40;52.60;;;;;;5032121;28;20049;-72
2021/04/29 00:16:26;;;;;;;16.67;11.38;;;11.40;52.60;;;;;;5030709;28;20041;-72
2021/04/29 00:18:55;;;;;;;16.02;12.45;;;11.40;52.70;;;;;;5016289;28;20126;-72
2021/04/29 00:21:24;;;;;;;14.95;12.88;;;11.40;52.70;;;;;;5013572;28;20065;-72
2021/04/29 00:23:50;;;;;;;14.82;11.73;;;11.40;52.70;;;;;;5014777;28;20944;-70
2021/04/29 00:26:16;;;;;;;18.05;12.63;;;11.40;52.90;;;;;;4998853;28;20054;-72
2021/04/29 00:28:49;;;;;;;13.82;12.05;;;11.40;52.80;;;;;;4997139;28;20132;-71
2021/04/29 00:31:15;;;;;;;12.93;11.63;;;11.40;52.80;;;;;;4998787;28;20133;-72
2021/04/29 00:33:43;;;;;;;15.13;13.20;;;11.40;52.80;;;;;;4994547;28;20141;-72
2021/04/29 00:36:09;;;;;;;15.25;13.52;;;11.40;53.00;;;;;;5005572;28;20124;-71
2021/04/29 00:38:34;;;;;;;16.63;13.20;;;11.40;53.00;;;;;;5026873;28;20044;-75
2021/04/29 00:41:02;;;;;;;15.75;12.75;;;11.40;53.10;;;;;;5032455;28;20437;-72
2021/04/29 00:43:27;;;;;;;13.68;12.27;;;11.40;53.00;;;;;;5015470;28;20160;-73
2021/04/29 00:45:53;;;;;;;14.82;13.23;;;11.40;53.00;;;;;;5033542;28;20168;-72
2021/04/29 00:48:22;;;;;;;15.10;13.52;;;11.40;53.00;;;;;;5033838;28;20076;-72
2021/04/29 00:50:48;;;;;;;14.88;12.85;;;11.30;53.10;;;;;;4984188;28;20068;-74
2021/04/29 00:53:15;;;;;;;15.20;12.10;;;11.40;53.20;;;;;;4999875;28;20061;-72
2021/04/29 00:55:42;;;;;;;15.45;13.10;;;11.30;53.20;;;;;;5013730;28;20046;-72
2021/04/29 00:58:13;;;;;;;17.23;12.77;;;11.30;53.10;;;;;;4981169;28;20104;-72
2021/04/29 01:00:39;;;;;;;15.13;13.50;;;11.40;53.30;;;;;;4994494;28;20434;-76
2021/04/29 01:03:14;;;;;;;14.68;13.02;;;11.30;53.30;;;;;;5015808;28;20046;-73
2021/04/29 01:05:47;;;;;;;14.65;12.50;;;11.30;53.20;;;;;;5025423;28;20141;-75
2021/04/29 01:08:18;;;;;;;15.80;13.00;;;11.30;53.20;;;;;;5014561;28;20042;-72
2021/04/29 01:11:05;;;;;;;15.35;12.05;;;11.30;53.20;;;;;;4997250;28;20411;-73
2021/04/29 01:13:31;;;;;;;15.80;12.98;;;11.30;53.20;;;;;;5031053;28;20049;-72
2021/04/29 01:15:57;;;;;;;14.10;12.40;;;11.30;53.20;;;;;;5019102;28;20101;-72
2021/04/29 01:18:24;;;;;;;14.73;13.13;;;11.30;53.10;;;;;;5035522;28;20064;-71
2021/04/29 01:21:03;;;;;;;14.98;12.20;;;11.30;53.20;;;;;;5019145;28;20140;-71
2021/04/29 01:23:42;;;;;;;14.63;12.20;;;11.30;53.40;;;;;;5035937;28;20049;-72
2021/04/29 01:26:31;;;;;;;17.58;12.68;;;11.30;53.50;;;;;;5033694;28;20041;-71
2021/04/29 01:28:58;;;;;;;15.40;12.48;;;11.30;53.60;;;;;;5018374;28;20156;-72
2021/04/29 01:31:31;;;;;;;13.93;12.23;;;11.30;53.40;;;;;;5031874;28;20115;-71
2021/04/29 01:33:58;;;;;;;18.63;13.80;;;11.20;53.50;;;;;;4999082;28;20049;-72
2021/04/29 01:36:26;;;;;;;16.52;13.13;;;11.20;53.40;;;;;;5016648;28;20038;-73
2021/04/29 01:38:52;;;;;;;16.60;13.27;;;11.20;53.40;;;;;;5015534;28;20044;-73
2021/04/29 01:41:18;;;;;;;16.13;13.27;;;11.20;53.50;;;;;;5002739;28;20503;-72
2021/04/29 01:43:47;;;;;;;14.32;12.52;;;11.10;53.50;;;;;;5002822;28;20061;-73
2021/04/29 01:46:13;;;;;;;15.18;13.57;;;11.10;53.60;;;;;;5030540;28;20513;-72
2021/04/29 01:48:41;;;;;;;15.60;12.95;;;11.10;53.70;;;;;;5014597;28;20425;-72
2021/04/29 01:51:07;;;;;;;14.02;12.45;;;11.10;53.80;;;;;;5013820;28;20037;-73
2021/04/29 01:53:33;;;;;;;14.27;12.82;;;11.00;53.80;;;;;;5030603;28;20346;-73
2021/04/29 01:55:59;;;;;;;15.23;13.55;;;11.00;53.80;;;;;;5012960;28;20049;-72
2021/04/29 01:58:28;;;;;;;15.88;13.45;;;11.00;53.90;;;;;;5001077;28;20049;-72
2021/04/29 02:00:54;;;;;;;17.65;13.93;;;11.00;54.00;;;;;;5033612;28;20045;-72
2021/04/29 02:03:20;;;;;;;19.83;13.43;;;11.00;54.10;;;;;;5032352;28;20037;-72
2021/04/29 02:05:46;;;;;;;14.65;13.15;;;11.00;54.10;;;;;;5029797;28;20037;-76
2021/04/29 02:08:12;;;;;;;15.18;13.00;;;11.00;54.10;;;;;;5012699;28;20482;-72
2021/04/29 02:10:38;;;;;;;18.00;13.63;;;10.90;54.20;;;;;;5031057;28;20045;-72
2021/04/29 02:13:09;;;;;;;15.40;13.90;;;10.90;54.30;;;;;;4996125;28;20478;-72
2021/04/29 02:15:39;;;;;;;14.93;13.30;;;10.90;54.40;;;;;;5035095;28;20119;-72
2021/04/29 02:18:11;;;;;;;14.05;12.65;;;10.90;54.50;;;;;;5016797;28;20067;-72
2021/04/29 02:20:41;;;;;;;15.35;13.45;;;10.90;54.50;;;;;;5030971;28;20072;-71
2021/04/29 02:23:18;;;;;;;15.88;13.55;;;10.80;55.20;;;;;;5030660;28;20041;-72
2021/04/29 02:25:54;;;;;;;19.23;14.77;;;10.80;54.80;;;;;;5015838;28;20057;-75
2021/04/29 02:28:20;;;;;;;17.45;14.85;;;10.80;54.70;;;;;;5024856;28;20048;-73
2021/04/29 02:30:47;;;;;;;16.88;14.23;;;10.80;54.70;;;;;;4993579;28;20403;-72
2021/04/29 02:33:12;;;;;;;17.90;15.07;;;10.80;54.80;;;;;;5009097;28;20046;-73
2021/04/29 02:35:38;;;;;;;14.88;13.15;;;10.80;54.90;;;;;;5010644;28;20052;-71
2021/04/29 02:38:04;;;;;;;18.23;14.38;;;10.80;54.90;;;;;;5028277;28;20387;-72
2021/04/29 02:40:30;;;;;;;17.05;13.25;;;10.70;54.90;;;;;;5029450;28;20118;-72
2021/04/29 02:42:56;;;;;;;16.15;14.13;;;10.70;55.00;;;;;;5029681;28;20121;-73
2021/04/29 02:45:22;;;;;;;15.57;13.57;;;10.80;55.10;;;;;;4996517;28;20533;-72
2021/04/29 02:47:48;;;;;;;15.13;13.52;;;10.80;55.10;;;;;;5029396;28;20124;-72
2021/04/29 02:50:19;;;;;;;16.08;14.38;;;10.80;55.20;;;;;;5029970;28;20101;-72
2021/04/29 02:52:45;;;;;;;16.35;14.07;;;10.70;55.20;;;;;;5030744;28;20057;-72
2021/04/29 02:55:12;;;;;;;15.75;14.05;;;10.70;55.30;;;;;;5012261;28;20069;-72
2021/04/29 02:57:37;;;;;;;17.02;13.93;;;10.70;55.30;;;;;;5029412;28;20124;-71
2021/04/29 03:00:06;;;;;;;16.67;14.52;;;10.70;55.40;;;;;;5001513;28;20156;-71
2021/04/29 03:02:31;;;;;;;15.80;13.95;;;10.70;55.50;;;;;;4993512;28;20127;-71
2021/04/29 03:04:57;;;;;;;15.80;13.43;;;10.70;55.60;;;;;;4992934;28;20081;-75
2021/04/29 03:07:23;;;;;;;14.77;13.23;;;10.70;55.60;;;;;;5010894;28;20169;-72
2021/04/29 03:09:51;;;;;;;16.55;14.35;;;10.70;55.50;;;;;;4993635;28;20061;-72
2021/04/29 03:12:17;;;;;;;15.73;14.00;;;10.70;55.70;;;;;;5008780;28;20656;-72
2021/04/29 03:14:43;;;;;;;16.35;14.18;;;10.70;55.80;;;;;;4993241;28;20183;-72
2021/04/29 03:17:09;;;;;;;16.30;14.60;;;10.70;55.80;;;;;;4976233;28;20124;-72
2021/04/29 03:19:35;;;;;;;16.83;14.27;;;10.70;55.90;;;;;;4993280;28;20050;-73
2021/04/29 03:22:00;;;;;;;18.20;14.57;;;10.70;56.00;;;;;;5008170;28;20042;-75
2021/04/29 03:24:26;;;;;;;19.00;14.95;;;10.70;56.00;;;;;;4993460;28;20446;-72
2021/04/29 03:26:52;;;;;;;16.88;14.32;;;10.70;56.10;;;;;;4993285;28;20042;-73
2021/04/29 03:29:18;;;;;;;15.68;13.98;;;10.60;56.30;;;;;;5008671;28;20637;-73
2021/04/29 03:31:43;;;;;;;18.30;15.25;;;10.60;56.20;;;;;;4992880;28;20054;-73
2021/04/29 03:34:09;;;;;;;17.35;14.35;;;10.60;56.50;;;;;;5008553;28;20054;-73
2021/04/29 03:36:35;;;;;;;18.38;14.93;;;10.60;56.60;;;;;;4993078;28;20049;-71
2021/04/29 03:39:01;;;;;;;16.83;14.93;;;10.60;56.80;;;;;;5009802;28;20042;-76
2021/04/29 03:41:27;;;;;;;20.00;16.02;;;10.60;56.90;;;;;;4992904;28;20410;-72
2021/04/29 03:43:52;;;;;;;18.42;15.27;;;10.60;57.00;;;;;;5010238;28;20058;-71
2021/04/29 03:46:18;;;;;;;19.10;16.30;;;10.50;57.00;;;;;;4992265;28;20053;-71
2021/04/29 03:48:44;;;;;;;19.52;15.73;;;10.50;57.10;;;;;;4995748;28;20050;-72
2021/04/29 03:51:10;;;;;;;18.38;16.48;;;10.50;57.20;;;;;;4995478;28;20438;-71
2021/04/29 03:53:37;;;;;;;19.17;16.10;;;10.50;57.20;;;;;;5013942;28;20052;-71
2021/04/29 03:56:04;;;;;;;21.58;17.02;;;10.50;57.30;;;;;;4995670;28;20141;-76
2021/04/29 03:58:30;;;;;;;17.80;15.90;;;10.50;57.30;;;;;;5013697;28;20465;-71
2021/04/29 04:00:55;;;;;;;19.88;17.20;;;10.60;57.30;;;;;;4996053;28;20042;-73
2021/04/29 04:03:21;;;;;;;20.77;17.02;;;10.50;57.50;;;;;;5024681;28;20855;-71
2021/04/29 04:05:47;;;;;;;18.02;16.10;;;10.50;57.50;;;;;;5006165;28;20049;-71
2021/04/29 04:08:13;;;;;;;19.25;16.70;;;10.50;57.60;;;;;;5014506;28;20041;-72
2021/04/29 04:10:38;;;;;;;19.60;17.52;;;10.50;58.30;;;;;;4983547;28;20114;-72
2021/04/29 04:13:04;;;;;;;20.85;17.50;;;10.50;57.70;;;;;;4998849;28;20045;-76
2021/04/29 04:15:30;;;;;;;20.40;17.52;;;10.50;58.30;;;;;;5033223;28;20457;-72
2021/04/29 04:17:56;;;;;;;20.90;18.60;;;10.50;57.90;;;;;;5033126;28;20048;-73
2021/04/29 04:20:22;;;;;;;19.02;17.15;;;10.50;58.70;;;;;;5014452;28;20096;-73
2021/04/29 04:22:48;;;;;;;19.02;17.13;;;10.40;58.10;;;;;;4995801;28;20053;-72
2021/04/29 04:25:14;;;;;;;20.33;18.15;;;10.50;58.10;;;;;;4995209;28;20167;-72
2021/04/29 04:27:43;;;;;;;22.08;18.38;;;10.40;58.00;;;;;;4979611;28;20459;-72
2021/04/29 04:30:09;;;;;;;25.42;19.15;;;10.50;58.20;;;;;;4995049;28;20046;-75
2021/04/29 04:32:35;;;;;;;21.83;18.92;;;10.50;58.50;;;;;;5011984;28;20042;-71
2021/04/29 04:35:01;;;;;;;23.63;18.70;;;10.50;58.30;;;;;;5013414;28;20057;-71
2021/04/29 04:37:27;;;;;;;22.55;19.10;;;10.40;58.40;;;;;;4988697;28;20136;-72
2021/04/29 04:39:54;;;;;;;22.88;19.50;;;10.40;58.60;;;;;;5015083;28;20095;-73
2021/04/29 04:42:20;;;;;;;21.33;19.10;;;10.50;58.70;;;;;;5030980;28;20120;-71
2021/04/29 04:44:46;;;;;;;22.48;19.08;;;10.50;58.80;;;;;;5032688;28;20504;-71
2021/04/29 04:47:13;;;;;;;21.05;18.92;;;10.50;58.90;;;;;;5014043;28;20057;-72
2021/04/29 04:49:39;;;;;;;24.40;20.85;;;10.50;59.20;;;;;;5014793;28;20060;-71
2021/04/29 04:52:05;;;;;;;21.65;18.55;;;10.40;59.30;;;;;;5015069;28;20046;-71
2021/04/29 04:54:31;;;;;;;23.15;19.63;;;10.50;59.40;;;;;;5030530;28;20478;-72
2021/04/29 04:56:59;;;;;;;20.65;18.50;;;10.50;59.40;;;;;;4998789;28;20468;-71
2021/04/29 04:59:25;;;;;;;20.58;18.40;;;10.50;59.60;;;;;;5024793;28;20095;-72
2021/04/29 05:01:54;;;;;;;23.05;20.08;;;10.50;59.40;;;;;;5024319;28;20050;-72
2021/04/29 05:04:25;;;;;;;21.92;19.60;;;10.50;59.50;;;;;;5031148;28;20095;-72
2021/04/29 05:06:51;;;;;;;22.52;20.13;;;10.50;59.60;;;;;;5014440;28;20049;-72
2021/04/29 05:09:19;;;;;;;22.45;19.90;;;10.50;59.70;;;;;;4996488;28;20061;-72
2021/04/29 05:11:44;;;;;;;22.23;18.90;;;10.50;59.70;;;;;;5008231;28;20049;-72
2021/04/29 05:14:10;;;;;;;21.90;18.55;;;10.50;59.60;;;;;;5013974;28;20163;-72
2021/04/29 05:16:37;;;;;;;22.42;19.75;;;10.40;59.70;;;;;;5029295;28;20552;-71
2021/04/29 05:19:02;;;;;;;22.65;20.33;;;10.50;59.70;;;;;;5027475;28;20050;-72
2021/04/29 05:21:28;;;;;;;23.05;20.50;;;10.50;60.30;;;;;;5012565;28;20517;-72
2021/04/29 05:23:54;;;;;;;21.95;19.73;;;10.50;59.90;;;;;;5014056;28;20457;-72
2021/04/29 05:26:20;;;;;;;23.58;21.08;;;10.50;59.60;;;;;;5012700;28;20041;-72
2021/04/29 05:28:45;;;;;;;23.70;20.98;;;10.50;60.00;;;;;;5014256;28;20044;-71
2021/04/29 05:31:11;;;;;;;29.65;20.45;;;10.50;60.00;;;;;;5009466;28;20101;-74
2021/04/29 05:33:37;;;;;;;22.70;20.35;;;10.60;60.10;;;;;;5028661;28;20037;-71
2021/04/29 05:36:06;;;;;;;24.08;20.60;;;10.60;60.20;;;;;;5012450;28;20044;-72
2021/04/29 05:38:32;;;;;;;24.45;21.33;;;10.60;60.40;;;;;;5027901;28;20497;-73
2021/04/29 05:40:57;;;;;;;22.38;20.08;;;10.60;60.50;;;;;;5013626;28;20045;-72
2021/04/29 05:43:23;;;;;;;23.05;20.33;;;10.70;60.30;;;;;;5030607;28;20096;-71
2021/04/29 05:45:49;;;;;;;22.30;19.92;;;10.70;61.10;;;;;;4997236;28;20053;-71
2021/04/29 05:48:15;;;;;;;22.63;19.88;;;10.70;60.30;;;;;;5007660;28;20255;-69
2021/04/29 05:50:40;;;;;;;22.52;19.92;;;10.70;60.10;;;;;;5004306;28;20553;-73
2021/04/29 05:53:06;;;;;;;24.38;21.83;;;10.70;60.10;;;;;;5011749;28;20065;-72
2021/04/29 05:55:32;;;;;;;25.48;21.05;;;10.70;60.10;;;;;;5010275;28;20041;-73
2021/04/29 05:58:00;;;;;;;22.77;20.48;;;10.70;59.90;;;;;;5000586;28;20034;-72
2021/04/29 06:00:26;;;;;;;22.50;20.08;;;10.80;60.10;;;;;;5021600;28;20076;-72
2021/04/29 06:02:53;;;;;;;22.55;20.15;;;10.80;60.30;;;;;;5007712;28;20054;-73
2021/04/29 06:05:19;;;;;;;23.65;20.95;;;10.80;60.30;;;;;;5028392;28;20048;-76
2021/04/29 06:07:45;;;;;;;22.95;19.17;;;10.80;60.10;;;;;;4993447;28;20050;-76
2021/04/29 06:10:11;;;;;;;23.42;20.73;;;10.90;60.10;;;;;;5025566;28;20434;-79
2021/04/29 06:12:36;;;;;;;24.13;21.52;;;10.90;60.20;;;;;;5013593;28;20045;-79
2021/04/29 06:15:02;;;;;;;26.65;20.27;;;10.90;60.10;;;;;;5001445;28;20069;-75
2021/04/29 06:17:28;;;;;;;24.50;20.20;;;10.90;59.90;;;;;;5019519;28;20050;-74
2021/04/29 06:19:54;;;;;;;25.15;20.70;;;11.00;59.90;;;;;;5011017;28;20048;-78
2021/04/29 06:22:20;;;;;;;23.13;20.50;;;11.00;60.00;;;;;;5011231;28;20065;-78
2021/04/29 06:24:45;;;;;;;22.75;20.40;;;11.00;60.10;;;;;;4995658;28;20049;-76
2021/04/29 06:27:11;;;;;;;23.45;20.90;;;11.10;59.90;;;;;;4997130;28;20453;-77
2021/04/29 06:29:37;;;;;;;23.70;21.25;;;11.10;59.90;;;;;;5012435;28;20041;-76
2021/04/29 06:32:03;;;;;;;23.13;20.63;;;11.10;59.80;;;;;;4980422;28;20069;-78
2021/04/29 06:34:29;;;;;;;24.67;22.00;;;11.20;59.90;;;;;;4995942;28;20520;-78
2021/04/29 06:36:55;;;;;;;23.25;20.75;;;11.20;59.90;;;;;;5012814;28;20183;-78
2021/04/29 06:39:20;;;;;;;25.25;21.88;;;11.20;60.00;;;;;;4997195;28;20041;-75
2021/04/29 06:41:49;;;;;;;23.55;20.98;;;11.20;59.70;;;;;;5012878;28;20646;-76
2021/04/29 06:44:17;;;;;;;22.70;20.30;;;11.20;59.80;;;;;;4997931;28;20347;-76
2021/04/29 06:46:45;;;;;;;24.73;22.13;;;11.20;59.90;;;;;;5030827;28;20049;-76
2021/04/29 06:49:11;;;;;;;28.10;22.45;;;11.30;60.30;;;;;;5013601;28;20073;-75
2021/04/29 06:51:39;;;;;;;23.63;20.48;;;11.30;60.30;;;;;;4980433;28;20151;-75
2021/04/29 06:54:06;;;;;;;24.13;21.73;;;11.30;60.20;;;;;;4981495;28;20084;-77
2021/04/29 06:56:32;;;;;;;23.40;20.90;;;11.20;60.40;;;;;;5013539;28;20056;-77
2021/04/29 06:58:58;;;;;;;23.52;21.13;;;11.20;60.40;;;;;;4997964;28;20129;-75
2021/04/29 07:01:24;;;;;;;26.02;20.00;;;11.20;60.20;;;;;;4980836;28;20133;-75
2021/04/29 07:03:50;;;;;;;24.75;22.08;;;11.20;60.80;;;;;;4996248;28;20639;-76
2021/04/29 07:06:16;;;;;;;23.88;21.17;;;11.20;60.90;;;;;;4997279;28;20053;-75
2021/04/29 07:08:42;;;;;;;23.88;21.38;;;11.20;60.80;;;;;;4980131;28;20037;-78
2021/04/29 07:11:07;;;;;;;24.02;21.40;;;11.20;61.00;;;;;;4980992;28;20046;-75
2021/04/29 07:13:33;;;;;;;25.92;20.90;;;11.10;61.10;;;;;;4996659;28;20080;-76
2021/04/29 07:15:59;;;;;;;23.90;21.30;;;11.10;61.50;;;;;;5030731;28;20053;-75
2021/04/29 07:18:24;;;;;;;27.17;24.23;;;11.10;61.80;;;;;;5013599;28;20041;-74
2021/04/29 07:20:54;;;;;;;26.10;23.25;;;11.10;62.30;;;;;;4995870;28;20120;-74
2021/04/29 07:23:20;;;;;;;23.50;20.85;;;11.10;62.30;;;;;;5012186;28;20078;-75
2021/04/29 07:25:46;;;;;;;25.98;21.15;;;11.10;62.40;;;;;;5013108;28;20050;-75
2021/04/29 07:28:12;;;;;;;24.27;21.77;;;11.10;62.70;;;;;;5013316;28;20053;-75
2021/04/29 07:30:39;;;;;;;24.10;21.42;;;11.10;62.80;;;;;;5015112;28;20088;-77
2021/04/29 07:33:06;;;;;;;25.48;22.85;;;11.10;62.80;;;;;;5003825;28;20101;-76
2021/04/29 07:35:32;;;;;;;24.73;22.17;;;11.10;63.10;;;;;;5001368;28;20042;-82
2021/04/29 07:37:57;;;;;;;28.42;22.35;;;11.10;63.40;;;;;;5015609;28;20492;-76
2021/04/29 07:40:23;;;;;;;23.90;21.23;;;11.10;63.40;;;;;;4985518;28;20147;-77
2021/04/29 07:42:49;;;;;;;23.63;21.05;;;11.10;63.40;;;;;;5001751;28;20079;-76
2021/04/29 07:45:15;;;;;;;23.63;21.10;;;11.00;63.50;;;;;;4987429;28;20049;-76
2021/04/29 07:47:45;;;;;;;22.48;20.17;;;11.00;63.50;;;;;;5000617;28;20384;-75
2021/04/29 07:50:11;;;;;;;26.42;21.70;;;11.00;63.40;;;;;;4985222;28;20049;-75
2021/04/29 07:52:37;;;;;;;26.73;21.98;;;11.00;63.70;;;;;;5015794;28;20443;-82
2021/04/29 07:55:05;;;;;;;25.48;22.73;;;11.00;63.80;;;;;;5017846;28;20148;-76
2021/04/29 07:57:31;;;;;;;25.80;21.92;;;11.00;63.90;;;;;;4999804;28;20060;-76
2021/04/29 07:59:57;;;;;;;25.63;22.55;;;11.00;64.00;;;;;;5015860;28;20091;-75
2021/04/29 08:02:25;;;;;;;24.52;21.42;;;11.00;64.20;;;;;;4984158;28;20046;-76
2021/04/29 08:04:51;;;;;;;25.10;22.50;;;11.00;64.30;;;;;;5015989;28;20053;-76
2021/04/29 08:07:17;;;;;;;26.08;23.35;;;11.00;64.30;;;;;;5017021;28;20042;-76
2021/04/29 08:09:42;;;;;;;27.17;23.48;;;11.00;64.50;;;;;;5016359;28;20038;-76
2021/04/29 08:12:08;;;;;;;25.23;21.83;;;11.00;64.60;;;;;;5001027;28;20046;-76
2021/04/29 08:14:34;;;;;;;24.40;21.75;;;11.00;64.70;;;;;;5000921;28;20458;-78
2021/04/29 08:17:00;;;;;;;22.77;20.45;;;11.00;64.80;;;;;;5016427;28;20104;-78
2021/04/29 08:19:25;;;;;;;27.10;22.50;;;11.00;64.90;;;;;;4984836;28;20050;-75
2021/04/29 08:21:51;;;;;;;23.83;21.35;;;11.00;65.10;;;;;;4999576;28;20072;-77
2021/04/29 08:24:17;;;;;;;23.85;21.08;;;11.00;65.20;;;;;;5014973;28;20192;-78
2021/04/29 08:26:43;;;;;;;27.05;22.10;;;11.00;65.30;;;;;;5011769;28;20057;-82
2021/04/29 08:29:09;;;;;;;24.25;21.63;;;11.00;65.50;;;;;;4996035;28;20041;-77
2021/04/29 08:31:35;;;;;;;24.60;22.05;;;11.00;65.90;;;;;;5012077;28;20049;-76
2021/04/29 08:34:02;;;;;;;30.48;22.48;;;11.00;66.10;;;;;;4978006;28;20610;-76
2021/04/29 08:36:30;;;;;;;98.38;34.17;;;11.00;66.40;;;;;;4995953;28;20053;-77
2021/04/29 08:38:59;;;;;;;47.13;26.90;;;11.00;66.40;;;;;;4979689;28;20057;-77
2021/04/29 08:41:25;;;;;;;77.30;32.00;;;11.10;66.70;;;;;;4995912;28;20514;-77
2021/04/29 08:43:51;;;;;;;82.15;33.25;;;11.00;66.60;;;;;;4995057;28;20046;-78
2021/04/29 08:46:17;;;;;;;28.73;21.70;;;11.00;66.70;;;;;;4995669;28;20048;-77
2021/04/29 08:48:43;;;;;;;174.82;54.35;;;11.00;66.80;;;;;;4995546;28;20045;-83
2021/04/29 08:51:08;;;;;;;39.50;23.70;;;11.00;66.90;;;;;;5011626;28;20447;-77
2021/04/29 08:53:36;;;;;;;33.67;22.92;;;11.00;67.00;;;;;;4995925;28;20048;-77
2021/04/29 08:56:02;;;;;;;34.75;23.50;;;11.00;67.20;;;;;;4994842;28;20042;-79
2021/04/29 08:58:27;;;;;;;39.72;23.05;;;11.00;67.30;;;;;;5011722;28;20093;-77
2021/04/29 09:01:01;;;;;;;31.65;22.23;;;11.00;67.30;;;;;;4995155;28;20456;-77
2021/04/29 09:03:31;;;;;;;28.38;21.17;;;11.00;67.80;;;;;;4979617;28;20478;-76
2021/04/29 09:05:58;;;;;;;27.88;21.45;;;11.00;67.50;;;;;;5011270;28;20046;-76
2021/04/29 09:08:30;;;;;;;30.60;22.17;;;11.00;67.60;;;;;;4979474;28;20061;-77
2021/04/29 09:11:08;;;;;;;;;;;11.00;67.80;;;;;;5011228;28;20056;-77
2021/04/29 09:13:34;;;;;;;23.13;19.38;;;11.00;69.00;;;;;;5011496;28;20020;-77
2021/04/29 09:16:14;;;;;;;28.25;21.30;;;11.00;67.60;;;;;;4996645;28;20077;-78
2021/04/29 09:18:41;;;;;;;24.83;20.65;;;11.00;68.10;;;;;;4997076;28;20456;-77
2021/04/29 09:21:12;;;;;;;24.23;20.92;;;11.00;68.10;;;;;;4994294;28;20049;-77
2021/04/29 09:23:48;;;;;;;22.70;20.58;;;11.00;68.10;;;;;;4979271;28;20060;-76
2021/04/29 09:26:18;;;;;;;25.38;21.25;;;11.00;68.30;;;;;;4996037;28;20080;-76
2021/04/29 09:28:48;;;;;;;23.17;20.45;;;11.00;68.80;;;;;;4995010;28;20475;-78
2021/04/29 09:31:19;;;;;;;25.63;21.33;;;11.00;68.90;;;;;;5010816;28;20050;-77
2021/04/29 09:33:45;;;;;;;22.90;19.67;;;10.90;68.90;;;;;;4995167;28;20056;-78
2021/04/29 09:36:27;;;;;;;25.23;22.58;;;10.90;69.00;;;;;;5010490;28;20129;-77
2021/04/29 09:38:55;;;;;;;23.57;20.17;;;10.90;69.60;;;;;;4978182;28;20081;-81
2021/04/29 09:41:22;;;;;;;23.65;20.92;;;10.90;69.10;;;;;;4994919;28;20081;-77
2021/04/29 09:44:15;;;;;;;25.60;21.42;;;10.90;69.10;;;;;;4995173;28;20056;-77
2021/04/29 09:46:47;;;;;;;25.60;22.83;;;10.90;70.20;;;;;;4986700;28;20094;-78
2021/04/29 09:49:23;;;;;;;26.27;22.52;;;10.90;69.60;;;;;;4994309;28;20049;-78
2021/04/29 09:51:50;;;;;;;26.63;21.63;;;10.90;69.70;;;;;;5011101;28;20049;-77
2021/04/29 09:54:29;;;;;;;25.50;21.70;;;10.90;69.30;;;;;;4994195;28;20049;-78
2021/04/29 09:56:59;;;;;;;25.80;22.92;;;10.90;70.10;;;;;;4994354;28;20132;-85
2021/04/29 09:59:25;;;;;;;24.30;21.83;;;10.90;69.50;;;;;;5011225;28;20049;-78
2021/04/29 10:01:53;;;;;;;27.25;22.65;;;10.90;69.60;;;;;;4978486;28;20101;-84
2021/04/29 10:04:24;;;;;;;27.08;23.30;;;11.00;69.70;;;;;;4994613;28;20049;-76
2021/04/29 10:07:00;;;;;;;23.80;21.30;;;11.00;69.80;;;;;;4994737;28;20119;-75
2021/04/29 10:09:30;;;;;;;25.85;21.67;;;11.00;69.80;;;;;;4981176;28;20052;-75
2021/04/29 10:11:56;;;;;;;27.05;23.33;;;11.00;70.00;;;;;;4978096;28;20052;-82
2021/04/29 10:14:24;;;;;;;25.50;22.95;;;11.00;70.10;;;;;;4994660;28;20088;-76
2021/04/29 10:16:49;;;;;;;27.08;24.17;;;11.00;70.00;;;;;;4994181;28;20498;-77
2021/04/29 10:19:15;;;;;;;25.70;22.77;;;11.00;70.40;;;;;;4977300;28;20096;-77
2021/04/29 10:21:41;;;;;;;26.45;23.40;;;11.00;70.50;;;;;;4964279;28;20046;-77
2021/04/29 10:24:09;;;;;;;26.23;23.45;;;11.00;70.90;;;;;;5013246;28;20144;-76
2021/04/29 10:26:35;;;;;;;27.73;24.77;;;11.00;70.80;;;;;;4997557;28;20524;-76
2021/04/29 10:29:05;;;;;;;25.80;23.10;;;11.00;70.90;;;;;;4996411;28;20041;-77
2021/04/29 10:31:36;;;;;;;27.40;24.48;;;11.00;71.20;;;;;;4998318;28;20037;-77
2021/04/29 10:34:11;;;;;;;25.08;22.52;;;11.00;71.00;;;;;;4980462;28;20084;-77
2021/04/29 10:36:46;;;;;;;26.88;21.77;;;11.00;71.00;;;;;;4998189;28;20132;-75
2021/04/29 10:39:15;;;;;;;27.17;23.40;;;11.00;71.30;;;;;;4959816;28;20410;-77
2021/04/29 10:41:41;;;;;;;26.88;24.13;;;11.00;71.40;;;;;;5008469;28;20091;-74
2021/04/29 10:44:09;;;;;;;24.38;21.80;;;11.00;71.50;;;;;;5016183;28;20063;-73
2021/04/29 10:46:37;;;;;;;26.58;22.75;;;11.10;71.50;;;;;;5022190;28;20544;-72
2021/04/29 10:49:03;;;;;;;24.80;22.23;;;11.10;71.10;;;;;;5019503;28;20037;-77
2021/04/29 10:51:35;;;;;;;26.23;23.33;;;11.10;71.30;;;;;;5013434;28;20128;-72
2021/04/29 10:54:11;;;;;;;26.38;23.67;;;11.10;71.80;;;;;;5009468;28;20497;-74
2021/04/29 10:56:37;;;;;;;27.42;23.50;;;11.10;71.80;;;;;;5021567;28;20042;-69
2021/04/29 10:59:07;;;;;;;24.33;21.83;;;11.10;72.00;;;;;;5027942;28;21460;-82
2021/04/29 11:01:38;;;;;;;25.48;22.20;;;11.10;71.80;;;;;;5032974;28;20488;-75
2021/04/29 11:04:16;;;;;;;25.17;22.48;;;11.10;72.00;;;;;;4992482;28;20394;-79
2021/04/29 11:06:43;;;;;;;25.33;22.10;;;11.10;72.70;;;;;;5031072;28;20421;-75
2021/04/29 11:09:20;;;;;;;18.67;16.67;;;11.10;72.30;;;;;;5029417;28;20144;-76
2021/04/29 11:11:46;;;;;;;22.98;20.75;;;11.20;73.90;;;;;;5015026;28;20115;-72
2021/04/29 11:14:13;;;;;;;19.17;17.13;;;11.30;71.70;;;;;;5032846;28;20493;-70
2021/04/29 11:16:48;;;;;;;20.33;17.23;;;11.40;71.90;;;;;;5013638;28;20104;-75
2021/04/29 11:19:52;;;;;;;23.60;21.15;;;11.70;71.70;;;;;;5026268;28;20060;-76
2021/04/29 11:22:23;;;;;;;22.00;19.90;;;11.80;71.60;;;;;;5012967;28;20045;-78
2021/04/29 11:24:50;;;;;;;25.23;22.80;;;11.70;70.90;;;;;;5016235;28;20041;-76
2021/04/29 11:27:24;;;;;;;24.38;21.83;;;11.70;71.00;;;;;;5033435;28;20042;-76
2021/04/29 11:29:50;;;;;;;23.02;20.58;;;11.60;71.70;;;;;;5017201;28;20045;-75
2021/04/29 11:32:18;;;;;;;22.92;20.63;;;11.60;71.80;;;;;;5013228;28;20099;-76
2021/04/29 11:34:50;;;;;;;23.48;21.10;;;11.50;71.50;;;;;;4997222;28;20497;-74
2021/04/29 11:37:16;;;;;;;21.65;19.58;;;11.50;72.20;;;;;;5032987;28;20034;-74
2021/04/29 11:39:45;;;;;;;23.20;20.98;;;11.50;72.00;;;;;;4997015;28;20045;-74
2021/04/29 11:42:24;;;;;;;23.17;20.85;;;11.50;72.50;;;;;;5000023;28;20042;-75
2021/04/29 11:44:50;;;;;;;23.27;21.08;;;11.50;72.70;;;;;;5016369;28;20470;-75
2021/04/29 11:47:16;;;;;;;21.90;19.90;;;11.50;72.50;;;;;;5032067;28;20048;-75
2021/04/29 11:49:42;;;;;;;20.92;18.83;;;11.50;72.30;;;;;;4999671;28;20057;-75
2021/04/29 11:52:07;;;;;;;22.40;20.25;;;11.50;72.20;;;;;;4999742;28;20120;-84
2021/04/29 11:54:33;;;;;;;21.70;19.60;;;11.50;72.40;;;;;;5016230;28;20049;-75
2021/04/29 11:57:02;;;;;;;20.77;18.77;;;11.50;72.50;;;;;;5019580;28;20046;-76
2021/04/29 11:59:31;;;;;;;21.88;19.73;;;11.50;72.60;;;;;;5026516;28;20073;-76
2021/04/29 12:01:59;;;;;;;22.02;19.83;;;11.50;72.90;;;;;;4996769;28;20067;-76
2021/04/29 12:04:25;;;;;;;22.70;20.30;;;11.40;72.90;;;;;;5030253;28;20072;-76
2021/04/29 12:06:52;;;;;;;21.35;19.20;;;11.40;73.10;;;;;;5025798;28;20053;-76
2021/04/29 12:09:18;;;;;;;19.67;17.77;;;11.40;73.20;;;;;;5014954;28;20144;-76
2021/04/29 12:11:44;;;;;;;20.80;18.83;;;11.40;72.80;;;;;;5029284;28;20053;-76
2021/04/29 12:14:22;;;;;;;18.73;16.88;;;11.40;72.80;;;;;;5004737;28;20046;-82
2021/04/29 12:16:48;;;;;;;19.80;17.42;;;11.30;72.90;;;;;;5007231;28;20088;-77
2021/04/29 12:19:14;;;;;;;19.05;17.33;;;11.30;73.00;;;;;;4994162;28;20099;-86
2021/04/29 12:21:42;;;;;;;18.70;16.85;;;11.30;73.00;;;;;;5014587;28;20041;-77
2021/04/29 12:24:11;;;;;;;19.30;17.42;;;11.30;73.00;;;;;;5015321;28;20167;-76
2021/04/29 12:26:38;;;;;;;20.13;17.95;;;11.30;73.00;;;;;;5028389;28;20525;-77
2021/04/29 12:29:06;;;;;;;19.08;17.20;;;11.30;73.30;;;;;;5014975;28;20116;-77
2021/04/29 12:31:32;;;;;;;17.88;16.10;;;11.30;73.40;;;;;;5007446;28;20120;-75